createdAt,value
2024-03-16T00:00:05.681Z,579.08
2024-03-16T00:00:16.654Z,579.05
2024-03-16T00:00:28.641Z,578.98
2024-03-16T00:00:40.647Z,578.97
2024-03-16T00:00:51.607Z,579.02
2024-03-16T00:01:02.735Z,579.01
2024-03-16T00:01:14.779Z,579.00
2024-03-16T00:01:26.679Z,578.86
2024-03-16T00:01:37.713Z,578.85
2024-03-16T00:01:48.637Z,578.80
2024-03-16T00:01:59.731Z,578.80
2024-03-16T00:02:11.640Z,578.82
2024-03-16T00:02:23.650Z,578.86
2024-03-16T00:02:34.584Z,578.86
2024-03-16T00:02:45.549Z,578.80
2024-03-16T00:02:56.568Z,578.76
2024-03-16T00:03:07.658Z,578.86
2024-03-16T00:03:18.568Z,579.01
2024-03-16T00:03:29.665Z,578.93
2024-03-16T00:03:41.656Z,578.90
2024-03-16T00:03:52.642Z,578.83
2024-03-16T00:04:03.813Z,578.82
2024-03-16T00:04:14.676Z,578.86
2024-03-16T00:04:25.613Z,578.85
2024-03-16T00:04:36.614Z,578.80
2024-03-16T00:04:47.620Z,578.77
2024-03-16T00:04:59.599Z,578.80
2024-03-16T00:05:10.624Z,578.85
2024-03-16T00:05:21.633Z,578.91
2024-03-16T00:05:33.593Z,578.95
2024-03-16T00:05:45.656Z,578.92
2024-03-16T00:05:56.588Z,578.92
2024-03-16T00:06:07.608Z,578.84
2024-03-16T00:06:18.612Z,578.84
2024-03-16T00:06:30.628Z,578.84
2024-03-16T00:06:41.734Z,578.76
2024-03-16T00:06:53.677Z,578.84
2024-03-16T00:07:04.743Z,578.63
2024-03-16T00:07:15.713Z,578.75
2024-03-16T00:07:26.619Z,578.89
2024-03-16T00:07:38.687Z,578.87
2024-03-16T00:07:49.605Z,578.81
2024-03-16T00:08:01.597Z,578.80
2024-03-16T00:08:12.587Z,578.75
2024-03-16T00:08:23.736Z,578.76
2024-03-16T00:08:35.601Z,578.71
2024-03-16T00:08:46.604Z,578.61
2024-03-16T00:08:57.611Z,578.70
2024-03-16T00:09:09.597Z,578.68
2024-03-16T00:09:20.620Z,578.77
2024-03-16T00:09:31.627Z,578.79
2024-03-16T00:09:42.668Z,578.87
2024-03-16T00:09:53.626Z,578.90
2024-03-16T00:10:04.695Z,578.85
2024-03-16T00:10:15.672Z,578.93
2024-03-16T00:10:26.620Z,578.95
2024-03-16T00:10:38.707Z,578.86
2024-03-16T00:10:50.638Z,578.85
2024-03-16T00:11:02.641Z,578.90
2024-03-16T00:11:14.627Z,578.80
2024-03-16T00:11:26.678Z,578.89
2024-03-16T00:11:38.658Z,579.00
2024-03-16T00:11:49.598Z,579.10
2024-03-16T00:12:00.642Z,579.25
2024-03-16T00:12:12.618Z,579.15
2024-03-16T00:12:23.675Z,579.04
2024-03-16T00:12:34.612Z,578.82
2024-03-16T00:12:46.620Z,578.72
2024-03-16T00:12:57.600Z,578.81
2024-03-16T00:13:08.698Z,578.75
2024-03-16T00:13:20.594Z,578.70
2024-03-16T00:13:31.616Z,578.73
2024-03-16T00:13:43.682Z,578.82
2024-03-16T00:13:55.653Z,578.65
2024-03-16T00:14:07.637Z,578.52
2024-03-16T00:14:19.639Z,578.67
2024-03-16T00:14:31.615Z,578.49
2024-03-16T00:14:43.620Z,578.82
2024-03-16T00:14:55.639Z,578.91
2024-03-16T00:15:07.689Z,578.97
2024-03-16T00:15:18.609Z,579.10
2024-03-16T00:15:29.687Z,579.13
2024-03-16T00:15:41.658Z,579.08
2024-03-16T00:15:52.597Z,579.07
2024-03-16T00:16:03.693Z,579.08
2024-03-16T00:16:14.659Z,579.14
2024-03-16T00:16:25.626Z,579.21
2024-03-16T00:16:37.606Z,579.12
2024-03-16T00:16:48.612Z,579.02
2024-03-16T00:16:59.643Z,578.87
2024-03-16T00:17:11.614Z,578.80
2024-03-16T00:17:22.625Z,578.79
2024-03-16T00:17:34.623Z,578.78
2024-03-16T00:17:46.616Z,578.86
2024-03-16T00:17:57.657Z,578.98
2024-03-16T00:18:08.663Z,579.03
2024-03-16T00:18:19.567Z,579.05
2024-03-16T00:18:30.630Z,578.93
2024-03-16T00:18:41.724Z,578.98
2024-03-16T00:18:53.701Z,579.10
2024-03-16T00:19:04.783Z,579.09
2024-03-16T00:19:15.717Z,579.07
2024-03-16T00:19:27.603Z,579.22
2024-03-16T00:19:38.607Z,579.32
2024-03-16T00:19:50.622Z,579.37
2024-03-16T00:20:02.646Z,579.27
2024-03-16T00:20:14.638Z,579.28
2024-03-16T00:20:26.624Z,579.34
2024-03-16T00:20:38.606Z,579.41
2024-03-16T00:20:49.612Z,579.38
2024-03-16T00:21:01.646Z,579.39
2024-03-16T00:21:13.617Z,579.33
2024-03-16T00:21:24.652Z,579.25
2024-03-16T00:21:36.662Z,579.05
2024-03-16T00:21:47.706Z,578.99
2024-03-16T00:21:59.753Z,579.09
2024-03-16T00:22:10.636Z,579.17
2024-03-16T00:22:21.618Z,579.30
2024-03-16T00:22:33.601Z,579.38
2024-03-16T00:22:44.601Z,579.45
2024-03-16T00:22:55.606Z,579.45
2024-03-16T00:23:06.621Z,579.47
2024-03-16T00:23:18.599Z,579.38
2024-03-16T00:23:29.627Z,579.51
2024-03-16T00:23:40.601Z,579.55
2024-03-16T00:23:52.597Z,579.50
2024-03-16T00:24:04.602Z,579.54
2024-03-16T00:24:16.691Z,579.63
2024-03-16T00:24:28.664Z,579.65
2024-03-16T00:24:39.636Z,579.60
2024-03-16T00:24:51.615Z,579.52
2024-03-16T00:25:03.749Z,579.36
2024-03-16T00:25:15.646Z,579.43
2024-03-16T00:25:26.604Z,579.59
2024-03-16T00:25:38.601Z,579.63
2024-03-16T00:25:49.618Z,579.55
2024-03-16T00:26:00.617Z,579.48
2024-03-16T00:26:11.665Z,579.42
2024-03-16T00:26:22.602Z,579.26
2024-03-16T00:26:34.619Z,579.22
2024-03-16T00:26:45.630Z,579.13
2024-03-16T00:26:57.595Z,579.04
2024-03-16T00:27:08.629Z,579.05
2024-03-16T00:27:20.618Z,579.11
2024-03-16T00:27:31.644Z,579.01
2024-03-16T00:27:43.658Z,578.93
2024-03-16T00:27:55.657Z,578.99
2024-03-16T00:28:07.683Z,579.12
2024-03-16T00:28:18.622Z,579.34
2024-03-16T00:28:30.592Z,579.36
2024-03-16T00:28:41.602Z,579.44
2024-03-16T00:28:53.602Z,579.67
2024-03-16T00:29:04.605Z,579.77
2024-03-16T00:29:15.592Z,579.66
2024-03-16T00:29:27.620Z,579.58
2024-03-16T00:29:39.593Z,579.51
2024-03-16T00:29:50.628Z,579.41
2024-03-16T00:30:02.609Z,579.30
2024-03-16T00:30:13.640Z,579.37
2024-03-16T00:30:25.741Z,579.39
2024-03-16T00:30:36.691Z,579.43
2024-03-16T00:30:48.612Z,579.36
2024-03-16T00:31:02.128Z,579.42
2024-03-16T00:31:11.758Z,579.32
2024-03-16T00:31:22.721Z,579.42
2024-03-16T00:31:34.633Z,579.46
2024-03-16T00:31:46.608Z,579.46
2024-03-16T00:31:57.616Z,579.46
2024-03-16T00:32:09.620Z,579.42
2024-03-16T00:32:21.602Z,579.34
2024-03-16T00:32:32.655Z,579.35
2024-03-16T00:32:43.701Z,579.42
2024-03-16T00:32:55.827Z,579.45
2024-03-16T00:33:06.668Z,579.33
2024-03-16T00:33:17.571Z,579.38
2024-03-16T00:33:28.596Z,579.52
2024-03-16T00:33:39.720Z,579.45
2024-03-16T00:33:51.685Z,579.45
2024-03-16T00:34:02.683Z,579.53
2024-03-16T00:34:13.635Z,579.51
2024-03-16T00:34:25.631Z,579.54
2024-03-16T00:34:37.632Z,579.59
2024-03-16T00:34:49.597Z,579.60
2024-03-16T00:35:01.600Z,579.61
2024-03-16T00:35:13.569Z,579.63
2024-03-16T00:35:24.574Z,579.67
2024-03-16T00:35:36.589Z,579.81
2024-03-16T00:35:47.603Z,579.88
2024-03-16T00:35:58.604Z,579.88
2024-03-16T00:36:10.573Z,579.76
2024-03-16T00:36:21.574Z,579.75
2024-03-16T00:36:32.600Z,579.71
2024-03-16T00:36:44.619Z,579.83
2024-03-16T00:36:55.622Z,579.87
2024-03-16T00:37:06.740Z,579.88
2024-03-16T00:37:17.535Z,579.84
2024-03-16T00:37:28.601Z,579.89
2024-03-16T00:37:40.565Z,580.04
2024-03-16T00:37:51.555Z,580.15
2024-03-16T00:38:02.545Z,580.08
2024-03-16T00:38:13.588Z,580.07
2024-03-16T00:38:24.581Z,579.94
2024-03-16T00:38:35.584Z,579.82
2024-03-16T00:38:46.588Z,579.67
2024-03-16T00:38:58.637Z,579.57
2024-03-16T00:39:09.545Z,579.50
2024-03-16T00:39:20.547Z,579.36
2024-03-16T00:39:31.586Z,579.18
2024-03-16T00:39:42.648Z,579.05
2024-03-16T00:39:53.726Z,579.28
2024-03-16T00:40:04.620Z,579.51
2024-03-16T00:40:15.617Z,579.51
2024-03-16T00:40:26.582Z,579.66
2024-03-16T00:40:37.581Z,579.72
2024-03-16T00:40:48.596Z,579.62
2024-03-16T00:40:59.580Z,579.59
2024-03-16T00:41:10.588Z,579.61
2024-03-16T00:41:21.566Z,579.66
2024-03-16T00:41:32.588Z,579.77
2024-03-16T00:41:43.598Z,579.71
2024-03-16T00:41:54.594Z,579.72
2024-03-16T00:42:05.609Z,579.75
2024-03-16T00:42:17.581Z,579.73
2024-03-16T00:42:28.626Z,579.70
2024-03-16T00:42:40.677Z,579.70
2024-03-16T00:42:51.588Z,579.71
2024-03-16T00:43:03.664Z,579.64
2024-03-16T00:43:15.603Z,579.64
2024-03-16T00:43:27.569Z,579.49
2024-03-16T00:43:38.659Z,579.46
2024-03-16T00:43:49.589Z,579.50
2024-03-16T00:44:00.593Z,579.41
2024-03-16T00:44:12.584Z,579.37
2024-03-16T00:44:23.580Z,579.43
2024-03-16T00:44:35.575Z,579.68
2024-03-16T00:44:46.563Z,579.76
2024-03-16T00:44:57.558Z,579.74
2024-03-16T00:45:08.615Z,579.69
2024-03-16T00:45:20.564Z,579.59
2024-03-16T00:45:31.569Z,579.60
2024-03-16T00:45:43.600Z,579.53
2024-03-16T00:45:55.587Z,579.60
2024-03-16T00:46:07.635Z,579.78
2024-03-16T00:46:19.586Z,579.94
2024-03-16T00:46:30.558Z,579.88
2024-03-16T00:46:41.538Z,579.74
2024-03-16T00:46:52.562Z,579.63
2024-03-16T00:47:03.555Z,579.55
2024-03-16T00:47:14.589Z,579.54
2024-03-16T00:47:26.606Z,579.66
2024-03-16T00:47:38.666Z,579.44
2024-03-16T00:47:50.675Z,579.49
2024-03-16T00:48:02.638Z,579.50
2024-03-16T00:48:13.709Z,579.56
2024-03-16T00:48:25.638Z,579.58
2024-03-16T00:48:36.558Z,579.60
2024-03-16T00:48:47.569Z,579.70
2024-03-16T00:48:58.616Z,579.71
2024-03-16T00:49:10.598Z,579.70
2024-03-16T00:49:22.633Z,579.77
2024-03-16T00:49:34.682Z,579.86
2024-03-16T00:49:45.593Z,579.91
2024-03-16T00:49:57.541Z,579.84
2024-03-16T00:50:08.565Z,579.79
2024-03-16T00:50:19.600Z,579.76
2024-03-16T00:50:31.573Z,579.81
2024-03-16T00:50:42.553Z,579.97
2024-03-16T00:50:53.580Z,580.27
2024-03-16T00:51:04.587Z,580.36
2024-03-16T00:51:16.688Z,580.45
2024-03-16T00:51:28.601Z,580.43
2024-03-16T00:51:40.606Z,580.45
2024-03-16T00:51:52.640Z,580.34
2024-03-16T00:52:04.747Z,580.30
2024-03-16T00:52:16.691Z,580.24
2024-03-16T00:52:28.604Z,580.20
2024-03-16T00:52:39.602Z,580.13
2024-03-16T00:52:51.578Z,580.22
2024-03-16T00:53:02.596Z,580.14
2024-03-16T00:53:13.592Z,580.13
2024-03-16T00:53:25.725Z,579.99
2024-03-16T00:53:37.623Z,580.24
2024-03-16T00:53:49.586Z,580.16
2024-03-16T00:54:00.575Z,580.16
2024-03-16T00:54:11.560Z,580.12
2024-03-16T00:54:22.579Z,580.11
2024-03-16T00:54:33.620Z,580.08
2024-03-16T00:54:44.638Z,580.22
2024-03-16T00:54:55.669Z,580.32
2024-03-16T00:55:06.621Z,580.47
2024-03-16T00:55:18.673Z,580.40
2024-03-16T00:55:29.792Z,580.32
2024-03-16T00:55:41.593Z,580.34
2024-03-16T00:55:52.589Z,580.35
2024-03-16T00:56:04.596Z,580.33
2024-03-16T00:56:15.609Z,580.31
2024-03-16T00:56:27.572Z,580.32
2024-03-16T00:56:38.550Z,580.31
2024-03-16T00:56:49.600Z,580.15
2024-03-16T00:57:00.601Z,579.82
2024-03-16T00:57:11.596Z,580.18
2024-03-16T00:57:22.584Z,580.47
2024-03-16T00:57:33.581Z,580.50
2024-03-16T00:57:45.573Z,580.35
2024-03-16T00:57:56.609Z,580.39
2024-03-16T00:58:08.724Z,580.45
2024-03-16T00:58:19.559Z,580.56
2024-03-16T00:58:30.572Z,580.68
2024-03-16T00:58:41.555Z,580.86
2024-03-16T00:58:52.562Z,580.84
2024-03-16T00:59:03.563Z,580.63
2024-03-16T00:59:14.563Z,580.50
2024-03-16T00:59:25.647Z,580.50
2024-03-16T00:59:37.604Z,580.55
2024-03-16T00:59:49.581Z,580.47
2024-03-16T01:00:01.605Z,580.19
2024-03-16T01:00:13.618Z,580.16
2024-03-16T01:00:24.557Z,580.20
2024-03-16T01:00:35.657Z,580.22
2024-03-16T01:00:47.598Z,580.30
2024-03-16T01:00:58.726Z,580.17
2024-03-16T01:01:09.656Z,580.15
2024-03-16T01:01:20.640Z,580.14
2024-03-16T01:01:31.631Z,580.28
2024-03-16T01:01:42.611Z,580.37
2024-03-16T01:01:53.683Z,580.27
2024-03-16T01:02:04.658Z,580.12
2024-03-16T01:02:15.575Z,580.32
2024-03-16T01:02:26.567Z,580.24
2024-03-16T01:02:37.583Z,580.30
2024-03-16T01:02:49.649Z,580.43
2024-03-16T01:03:00.692Z,580.59
2024-03-16T01:03:11.605Z,580.64
2024-03-16T01:03:23.628Z,580.52
2024-03-16T01:03:35.605Z,580.50
2024-03-16T01:03:47.596Z,580.49
2024-03-16T01:03:58.606Z,580.57
2024-03-16T01:04:10.719Z,580.55
2024-03-16T01:04:21.604Z,580.56
2024-03-16T01:04:33.569Z,580.49
2024-03-16T01:04:44.585Z,580.61
2024-03-16T01:04:55.594Z,580.68
2024-03-16T01:05:07.565Z,580.62
2024-03-16T01:05:18.638Z,580.50
2024-03-16T01:05:30.598Z,580.59
2024-03-16T01:05:42.566Z,580.49
2024-03-16T01:05:53.719Z,580.45
2024-03-16T01:06:05.610Z,580.50
2024-03-16T01:06:17.617Z,580.60
2024-03-16T01:06:29.623Z,580.67
2024-03-16T01:06:41.583Z,580.53
2024-03-16T01:06:52.609Z,580.43
2024-03-16T01:07:04.656Z,580.37
2024-03-16T01:07:15.671Z,580.19
2024-03-16T01:07:27.553Z,580.12
2024-03-16T01:07:38.600Z,580.30
2024-03-16T01:07:49.569Z,580.32
2024-03-16T01:08:01.569Z,580.34
2024-03-16T01:08:12.591Z,580.34
2024-03-16T01:08:23.627Z,580.35
2024-03-16T01:08:35.584Z,580.35
2024-03-16T01:08:46.585Z,580.40
2024-03-16T01:08:57.579Z,580.46
2024-03-16T01:09:08.585Z,580.53
2024-03-16T01:09:20.584Z,580.68
2024-03-16T01:09:31.589Z,580.63
2024-03-16T01:09:43.646Z,580.79
2024-03-16T01:09:54.717Z,580.80
2024-03-16T01:10:05.631Z,580.90
2024-03-16T01:10:16.864Z,581.06
2024-03-16T01:10:28.657Z,580.95
2024-03-16T01:10:40.633Z,580.81
2024-03-16T01:10:52.627Z,580.69
2024-03-16T01:11:04.625Z,580.74
2024-03-16T01:11:16.660Z,580.84
2024-03-16T01:11:27.610Z,580.78
2024-03-16T01:11:38.552Z,580.77
2024-03-16T01:11:49.544Z,580.93
2024-03-16T01:12:00.535Z,580.99
2024-03-16T01:12:11.628Z,580.92
2024-03-16T01:12:23.789Z,580.81
2024-03-16T01:12:34.560Z,580.94
2024-03-16T01:12:45.581Z,581.01
2024-03-16T01:12:56.624Z,580.99
2024-03-16T01:13:07.599Z,580.88
2024-03-16T01:13:19.587Z,580.76
2024-03-16T01:13:30.585Z,580.69
2024-03-16T01:13:41.593Z,580.56
2024-03-16T01:13:52.631Z,580.51
2024-03-16T01:14:04.576Z,580.49
2024-03-16T01:14:15.573Z,580.51
2024-03-16T01:14:27.556Z,580.50
2024-03-16T01:14:38.568Z,580.42
2024-03-16T01:14:49.585Z,580.43
2024-03-16T01:15:00.662Z,580.55
2024-03-16T01:15:11.552Z,580.65
2024-03-16T01:15:22.560Z,580.79
2024-03-16T01:15:33.549Z,580.70
2024-03-16T01:15:44.578Z,580.78
2024-03-16T01:15:55.674Z,580.71
2024-03-16T01:16:07.641Z,580.84
2024-03-16T01:16:19.564Z,580.81
2024-03-16T01:16:30.554Z,580.79
2024-03-16T01:16:41.560Z,580.75
2024-03-16T01:16:52.559Z,580.72
2024-03-16T01:17:03.577Z,580.59
2024-03-16T01:17:14.653Z,580.70
2024-03-16T01:17:25.568Z,580.70
2024-03-16T01:17:36.571Z,580.56
2024-03-16T01:17:47.577Z,580.59
2024-03-16T01:17:58.569Z,580.67
2024-03-16T01:18:09.606Z,580.64
2024-03-16T01:18:21.566Z,580.53
2024-03-16T01:18:32.591Z,580.50
2024-03-16T01:18:43.568Z,580.56
2024-03-16T01:18:54.625Z,580.48
2024-03-16T01:19:06.654Z,580.32
2024-03-16T01:19:17.622Z,580.26
2024-03-16T01:19:28.595Z,580.36
2024-03-16T01:19:39.583Z,580.34
2024-03-16T01:19:50.572Z,580.34
2024-03-16T01:20:01.649Z,580.25
2024-03-16T01:20:12.593Z,580.30
2024-03-16T01:20:24.588Z,580.39
2024-03-16T01:20:35.579Z,580.50
2024-03-16T01:20:46.612Z,580.45
2024-03-16T01:20:58.581Z,580.57
2024-03-16T01:21:09.583Z,580.60
2024-03-16T01:21:20.573Z,580.72
2024-03-16T01:21:31.641Z,580.73
2024-03-16T01:21:42.605Z,580.67
2024-03-16T01:21:53.682Z,580.65
2024-03-16T01:22:05.684Z,580.58
2024-03-16T01:22:16.538Z,580.50
2024-03-16T01:22:27.541Z,580.48
2024-03-16T01:22:38.548Z,580.46
2024-03-16T01:22:49.628Z,580.48
2024-03-16T01:23:00.585Z,580.60
2024-03-16T01:23:11.574Z,580.77
2024-03-16T01:23:22.570Z,580.80
2024-03-16T01:23:33.555Z,580.71
2024-03-16T01:23:45.577Z,580.72
2024-03-16T01:23:56.595Z,580.68
2024-03-16T01:24:07.590Z,580.61
2024-03-16T01:24:18.581Z,580.60
2024-03-16T01:24:30.569Z,580.53
2024-03-16T01:24:41.646Z,580.61
2024-03-16T01:24:52.637Z,580.74
2024-03-16T01:25:03.614Z,580.78
2024-03-16T01:25:15.644Z,580.80
2024-03-16T01:25:26.541Z,580.78
2024-03-16T01:25:37.591Z,580.78
2024-03-16T01:25:49.627Z,580.76
2024-03-16T01:26:01.574Z,580.74
2024-03-16T01:26:12.577Z,580.76
2024-03-16T01:26:24.563Z,580.86
2024-03-16T01:26:35.572Z,580.93
2024-03-16T01:26:46.609Z,580.81
2024-03-16T01:26:58.591Z,580.77
2024-03-16T01:27:09.585Z,580.67
2024-03-16T01:27:21.573Z,580.70
2024-03-16T01:27:33.566Z,580.76
2024-03-16T01:27:44.635Z,580.86
2024-03-16T01:27:55.599Z,580.96
2024-03-16T01:28:06.689Z,580.96
2024-03-16T01:28:18.569Z,580.83
2024-03-16T01:28:29.557Z,580.70
2024-03-16T01:28:41.594Z,580.71
2024-03-16T01:28:53.583Z,580.85
2024-03-16T01:29:05.585Z,580.92
2024-03-16T01:29:16.562Z,581.00
2024-03-16T01:29:28.582Z,580.98
2024-03-16T01:29:40.570Z,580.97
2024-03-16T01:29:51.611Z,580.90
2024-03-16T01:30:03.574Z,580.81
2024-03-16T01:30:14.576Z,580.64
2024-03-16T01:30:25.619Z,580.65
2024-03-16T01:30:36.579Z,580.70
2024-03-16T01:30:47.643Z,580.57
2024-03-16T01:30:59.661Z,580.57
2024-03-16T01:31:14.493Z,580.67
2024-03-16T01:31:23.585Z,580.52
2024-03-16T01:31:35.601Z,580.50
2024-03-16T01:31:47.640Z,580.51
2024-03-16T01:31:58.539Z,580.55
2024-03-16T01:32:09.664Z,580.67
2024-03-16T01:32:20.557Z,580.83
2024-03-16T01:32:32.568Z,580.77
2024-03-16T01:32:43.615Z,580.83
2024-03-16T01:32:55.616Z,580.97
2024-03-16T01:33:06.670Z,580.94
2024-03-16T01:33:18.545Z,580.90
2024-03-16T01:33:29.570Z,580.85
2024-03-16T01:33:40.621Z,580.97
2024-03-16T01:33:51.637Z,581.12
2024-03-16T01:34:02.604Z,581.08
2024-03-16T01:34:14.648Z,581.00
2024-03-16T01:34:25.611Z,581.07
2024-03-16T01:34:36.536Z,581.11
2024-03-16T01:34:47.626Z,581.13
2024-03-16T01:34:59.576Z,581.17
2024-03-16T01:35:11.576Z,581.16
2024-03-16T01:35:22.538Z,581.05
2024-03-16T01:35:33.571Z,581.10
2024-03-16T01:35:44.554Z,581.30
2024-03-16T01:35:55.632Z,581.06
2024-03-16T01:36:07.601Z,581.10
2024-03-16T01:36:18.680Z,580.97
2024-03-16T01:36:29.610Z,580.68
2024-03-16T01:36:41.633Z,580.73
2024-03-16T01:36:53.588Z,580.86
2024-03-16T01:37:04.652Z,580.90
2024-03-16T01:37:15.632Z,580.80
2024-03-16T01:37:26.551Z,580.62
2024-03-16T01:37:37.618Z,580.65
2024-03-16T01:37:49.585Z,580.67
2024-03-16T01:38:01.570Z,580.68
2024-03-16T01:38:12.567Z,580.73
2024-03-16T01:38:23.660Z,580.82
2024-03-16T01:38:35.611Z,580.75
2024-03-16T01:38:47.592Z,580.62
2024-03-16T01:38:58.639Z,580.42
2024-03-16T01:39:10.593Z,580.39
2024-03-16T01:39:21.588Z,580.39
2024-03-16T01:39:32.605Z,580.36
2024-03-16T01:39:44.615Z,580.45
2024-03-16T01:39:56.692Z,580.56
2024-03-16T01:40:08.649Z,580.33
2024-03-16T01:40:19.648Z,580.33
2024-03-16T01:40:30.554Z,580.23
2024-03-16T01:40:41.557Z,580.36
2024-03-16T01:40:52.577Z,580.43
2024-03-16T01:41:03.583Z,580.40
2024-03-16T01:41:14.573Z,580.32
2024-03-16T01:41:25.589Z,580.28
2024-03-16T01:41:36.562Z,580.26
2024-03-16T01:41:47.565Z,580.18
2024-03-16T01:41:58.612Z,580.19
2024-03-16T01:42:09.569Z,580.09
2024-03-16T01:42:20.579Z,580.05
2024-03-16T01:42:31.573Z,580.33
2024-03-16T01:42:43.581Z,580.50
2024-03-16T01:42:55.623Z,580.62
2024-03-16T01:43:06.571Z,580.74
2024-03-16T01:43:18.574Z,580.88
2024-03-16T01:43:29.588Z,580.91
2024-03-16T01:43:40.582Z,580.86
2024-03-16T01:43:51.582Z,580.86
2024-03-16T01:44:02.587Z,580.77
2024-03-16T01:44:14.614Z,580.59
2024-03-16T01:44:26.586Z,580.87
2024-03-16T01:44:37.589Z,580.98
2024-03-16T01:44:48.576Z,580.91
2024-03-16T01:44:59.569Z,580.80
2024-03-16T01:45:10.628Z,580.79
2024-03-16T01:45:21.645Z,580.76
2024-03-16T01:45:33.633Z,580.72
2024-03-16T01:45:44.584Z,580.50
2024-03-16T01:45:55.657Z,580.41
2024-03-16T01:46:06.642Z,580.40
2024-03-16T01:46:18.623Z,580.43
2024-03-16T01:46:29.595Z,580.42
2024-03-16T01:46:41.587Z,580.63
2024-03-16T01:46:52.601Z,580.66
2024-03-16T01:47:04.604Z,580.66
2024-03-16T01:47:17.153Z,580.61
2024-03-16T01:47:28.587Z,580.71
2024-03-16T01:47:39.678Z,580.78
2024-03-16T01:47:51.561Z,580.69
2024-03-16T01:48:02.607Z,580.56
2024-03-16T01:48:14.640Z,580.64
2024-03-16T01:48:25.597Z,580.63
2024-03-16T01:48:37.623Z,580.70
2024-03-16T01:48:49.632Z,580.52
2024-03-16T01:49:01.640Z,580.73
2024-03-16T01:49:12.615Z,580.65
2024-03-16T01:49:24.557Z,580.64
2024-03-16T01:49:35.580Z,580.74
2024-03-16T01:49:46.577Z,580.77
2024-03-16T01:49:58.569Z,580.79
2024-03-16T01:50:09.690Z,580.88
2024-03-16T01:50:20.583Z,580.96
2024-03-16T01:50:31.641Z,580.81
2024-03-16T01:50:43.576Z,580.81
2024-03-16T01:50:54.581Z,580.95
2024-03-16T01:51:08.039Z,580.78
2024-03-16T01:51:17.609Z,580.68
2024-03-16T01:51:28.636Z,580.56
2024-03-16T01:51:40.799Z,580.67
2024-03-16T01:51:52.586Z,580.60
2024-03-16T01:52:04.640Z,580.49
2024-03-16T01:52:16.587Z,580.67
2024-03-16T01:52:28.572Z,580.56
2024-03-16T01:52:40.547Z,580.74
2024-03-16T01:52:51.600Z,580.79
2024-03-16T01:53:03.589Z,580.70
2024-03-16T01:53:14.587Z,580.63
2024-03-16T01:53:25.587Z,580.70
2024-03-16T01:53:36.600Z,580.71
2024-03-16T01:53:47.578Z,580.64
2024-03-16T01:53:58.575Z,580.58
2024-03-16T01:54:09.562Z,580.53
2024-03-16T01:54:20.564Z,580.65
2024-03-16T01:54:31.636Z,580.71
2024-03-16T01:54:43.575Z,580.80
2024-03-16T01:54:54.715Z,580.90
2024-03-16T01:55:05.731Z,580.96
2024-03-16T01:55:16.661Z,580.83
2024-03-16T01:55:28.546Z,580.81
2024-03-16T01:55:39.564Z,580.80
2024-03-16T01:55:50.575Z,581.12
2024-03-16T01:56:01.572Z,581.18
2024-03-16T01:56:12.600Z,581.04
2024-03-16T01:56:24.575Z,581.12
2024-03-16T01:56:35.621Z,581.18
2024-03-16T01:56:47.570Z,581.12
2024-03-16T01:56:58.578Z,581.21
2024-03-16T01:57:09.619Z,581.20
2024-03-16T01:57:21.612Z,581.30
2024-03-16T01:57:33.632Z,581.37
2024-03-16T01:57:45.678Z,581.20
2024-03-16T01:57:57.673Z,581.18
2024-03-16T01:58:09.669Z,581.18
2024-03-16T01:58:20.636Z,581.09
2024-03-16T01:58:31.566Z,581.07
2024-03-16T01:58:42.574Z,581.07
2024-03-16T01:58:53.578Z,581.16
2024-03-16T01:59:04.616Z,581.16
2024-03-16T01:59:16.670Z,581.17
2024-03-16T01:59:27.618Z,581.08
2024-03-16T01:59:39.572Z,581.15
2024-03-16T01:59:50.575Z,581.14
2024-03-16T02:00:01.602Z,581.18
2024-03-16T02:00:12.695Z,581.34
2024-03-16T02:00:24.617Z,581.37
2024-03-16T02:00:35.657Z,581.37
2024-03-16T02:00:46.590Z,581.39
2024-03-16T02:00:57.801Z,581.39
2024-03-16T02:01:09.684Z,581.34
2024-03-16T02:01:21.724Z,581.26
2024-03-16T02:01:32.963Z,581.23
2024-03-16T02:01:43.555Z,581.20
2024-03-16T02:01:54.604Z,581.07
2024-03-16T02:02:06.744Z,581.13
2024-03-16T02:02:17.559Z,581.28
2024-03-16T02:02:28.554Z,581.14
2024-03-16T02:02:39.561Z,581.15
2024-03-16T02:02:50.565Z,581.12
2024-03-16T02:03:01.600Z,581.06
2024-03-16T02:03:12.584Z,580.95
2024-03-16T02:03:24.621Z,580.96
2024-03-16T02:03:36.631Z,581.03
2024-03-16T02:03:48.611Z,581.05
2024-03-16T02:04:00.694Z,581.02
2024-03-16T02:04:11.621Z,580.93
2024-03-16T02:04:23.579Z,580.79
2024-03-16T02:04:34.597Z,580.81
2024-03-16T02:04:46.572Z,580.80
2024-03-16T02:04:57.594Z,580.85
2024-03-16T02:05:09.606Z,580.98
2024-03-16T02:05:21.574Z,580.93
2024-03-16T02:05:32.650Z,580.94
2024-03-16T02:05:43.558Z,580.79
2024-03-16T02:05:54.581Z,580.83
2024-03-16T02:06:05.600Z,580.75
2024-03-16T02:06:17.625Z,580.86
2024-03-16T02:06:29.645Z,580.85
2024-03-16T02:06:40.591Z,580.85
2024-03-16T02:06:51.613Z,580.90
2024-03-16T02:07:03.702Z,580.73
2024-03-16T02:07:15.663Z,580.73
2024-03-16T02:07:26.592Z,580.87
2024-03-16T02:07:37.588Z,580.83
2024-03-16T02:07:48.595Z,580.82
2024-03-16T02:08:00.688Z,580.75
2024-03-16T02:08:11.595Z,580.94
2024-03-16T02:08:22.597Z,581.00
2024-03-16T02:08:33.592Z,581.00
2024-03-16T02:08:44.581Z,580.96
2024-03-16T02:08:55.582Z,580.95
2024-03-16T02:09:06.571Z,580.97
2024-03-16T02:09:17.582Z,580.96
2024-03-16T02:09:28.582Z,580.97
2024-03-16T02:09:39.646Z,580.94
2024-03-16T02:09:50.579Z,580.93
2024-03-16T02:10:01.810Z,580.91
2024-03-16T02:10:12.647Z,580.95
2024-03-16T02:10:23.587Z,580.99
2024-03-16T02:10:34.606Z,581.01
2024-03-16T02:10:46.607Z,580.80
2024-03-16T02:10:58.612Z,580.87
2024-03-16T02:11:10.591Z,580.96
2024-03-16T02:11:22.583Z,580.95
2024-03-16T02:11:34.591Z,580.85
2024-03-16T02:11:45.596Z,580.76
2024-03-16T02:11:57.564Z,580.81
2024-03-16T02:12:08.533Z,580.85
2024-03-16T02:12:19.533Z,580.71
2024-03-16T02:12:30.673Z,580.84
2024-03-16T02:12:42.657Z,580.86
2024-03-16T02:12:54.721Z,580.80
2024-03-16T02:13:06.665Z,580.91
2024-03-16T02:13:18.628Z,580.94
2024-03-16T02:13:30.601Z,580.88
2024-03-16T02:13:42.591Z,580.90
2024-03-16T02:13:53.610Z,581.06
2024-03-16T02:14:05.576Z,581.13
2024-03-16T02:14:16.567Z,581.19
2024-03-16T02:14:27.557Z,581.11
2024-03-16T02:14:38.571Z,581.09
2024-03-16T02:14:49.617Z,581.03
2024-03-16T02:15:01.575Z,581.05
2024-03-16T02:15:13.584Z,581.05
2024-03-16T02:15:24.598Z,580.97
2024-03-16T02:15:36.618Z,580.90
2024-03-16T02:15:47.602Z,580.74
2024-03-16T02:15:59.645Z,580.71
2024-03-16T02:16:10.760Z,580.70
2024-03-16T02:16:21.571Z,580.88
2024-03-16T02:16:32.543Z,580.91
2024-03-16T02:16:43.552Z,580.92
2024-03-16T02:16:54.558Z,581.08
2024-03-16T02:17:05.588Z,581.11
2024-03-16T02:17:16.631Z,581.14
2024-03-16T02:17:28.930Z,581.12
2024-03-16T02:17:40.617Z,581.05
2024-03-16T02:17:52.648Z,580.92
2024-03-16T02:18:04.619Z,580.87
2024-03-16T02:18:15.566Z,580.94
2024-03-16T02:18:26.610Z,580.92
2024-03-16T02:18:37.704Z,580.86
2024-03-16T02:18:49.607Z,580.97
2024-03-16T02:19:01.648Z,581.01
2024-03-16T02:19:12.594Z,580.99
2024-03-16T02:19:24.596Z,581.02
2024-03-16T02:19:35.588Z,581.07
2024-03-16T02:19:46.547Z,580.97
2024-03-16T02:19:57.571Z,581.01
2024-03-16T02:20:08.574Z,581.05
2024-03-16T02:20:19.584Z,580.93
2024-03-16T02:20:30.539Z,580.90
2024-03-16T02:20:41.548Z,580.86
2024-03-16T02:20:52.568Z,580.88
2024-03-16T02:21:03.580Z,580.78
2024-03-16T02:21:14.637Z,580.67
2024-03-16T02:21:26.699Z,580.74
2024-03-16T02:21:38.650Z,580.72
2024-03-16T02:21:50.689Z,580.63
2024-03-16T02:22:02.719Z,580.67